Kathryn, North Dakota
Current Conditions -  °F | °C
As of 5:15 PM on Tuesday 25 Nov 2014 (Local Time) from KBAC Reporting Station
Unknown Precip Unknown Precip  
Wind Chill: 16°   Ceiling: 3200
Heat Index: 27°   Visibility: 7mi
Dew Point: 27°   Wind: 12mph
Humidity: 100%   Direction: 110°ESE
Pressure: 29.85"   Gusts: NA
Location:  46.68°N, 97.97°W
Report Text: KBAC 252315Z AUTO 11010KT 7SM UP FEW014 BKN032 OVC050 M03/M03 A2985 RMK AO2
Loading
Personal Weather Stations






























Interactive Weather Map New forecast layout! Learn more

10-Day Weather Forecast

Advertisements
Track Severe Weather on mobile